Etusivu
METAR-TAF:

METAR-TAF

Lentoasemat :

Stewart, Brittiläinen Kolumbia, Kanada

Leveyspiiri: 55-56N, Pituuspiiri: 129-59W, korkeus merenpinnasta: 7 m

Tämänhetkinen sää

Tämä raportti tehtiin 9 tuntia ja 54 minuuttia sitten, kello 01.00 UTC
Tuuli 9 kn lounaasta puuskistuen 18 kn:hen, vaihdellen etelän ja lännen välillä
Lämpötila 6°C
Kosteus 52%
Ilmanpaine 1010 hPa
Näkyvyys: 16.1 km
Hajonneita pilviä 6000 ft:n korkeudessa, Cumulonimbus.

METAR: CZST 070100Z 22009G18KT 190V260 10SM BKN060CB 06/M03 A2983 RMK CB7 VIRGA/LAST STFD OBS/NEXT 071300Z/ SLP103

Aika: 03:54 (10:54 UTC)


TAF: puuttuu

Säähavainnot ja -ennusteet yli 4000 lentoasemalta (METAR- ja TAF-raportit).

Käytössä olevat sääasemat on merkitty karttaan keltaisilla ja punaisilla pisteillä.

Aseta hiiri pisteen päälle nähdäksesi sääaseman nimen.

Klikkaa sitten nähdäksesi säähavainnot ja -ennusteet.

Kartan vaihtaminen: klikkaa mustalla rastilla varustettuja vihreitä pisteitä, niin voit zoomata sisään; viivalla varustettua vihreää pistettä, niin voit zoomata ulos tai vihreitä nuolia, niin pääset viereisille kartoille.


METAR-TAF: